sensor_id;sensor_type;location;lat;lon;timestamp;P1;durP1;ratioP1;P2;durP2;ratioP2
70558;SDS011;58108;48.094;11.838;2022-09-03T00:02:42;4.07;;;1.20;;
70558;SDS011;58108;48.094;11.838;2022-09-03T00:05:14;3.05;;;1.50;;
70558;SDS011;58108;48.094;11.838;2022-09-03T00:10:29;2.70;;;1.30;;
70558;SDS011;58108;48.094;11.838;2022-09-03T00:13:02;2.92;;;1.30;;
70558;SDS011;58108;48.094;11.838;2022-09-03T00:15:32;2.60;;;1.38;;
70558;SDS011;58108;48.094;11.838;2022-09-03T00:18:05;4.93;;;1.50;;
70558;SDS011;58108;48.094;11.838;2022-09-03T00:20:38;3.97;;;1.40;;
70558;SDS011;58108;48.094;11.838;2022-09-03T00:23:09;3.83;;;1.50;;
70558;SDS011;58108;48.094;11.838;2022-09-03T00:25:48;4.28;;;1.30;;
70558;SDS011;58108;48.094;11.838;2022-09-03T00:28:18;2.97;;;1.17;;
70558;SDS011;58108;48.094;11.838;2022-09-03T00:30:50;3.17;;;1.30;;
70558;SDS011;58108;48.094;11.838;2022-09-03T00:33:24;2.95;;;1.30;;
70558;SDS011;58108;48.094;11.838;2022-09-03T00:36:03;2.77;;;1.00;;
70558;SDS011;58108;48.094;11.838;2022-09-03T00:38:35;2.45;;;1.08;;
70558;SDS011;58108;48.094;11.838;2022-09-03T00:46:59;5.05;;;1.45;;
70558;SDS011;58108;48.094;11.838;2022-09-03T00:49:55;2.97;;;1.20;;
70558;SDS011;58108;48.094;11.838;2022-09-03T00:52:43;3.92;;;1.30;;
70558;SDS011;58108;48.094;11.838;2022-09-03T01:00:55;4.32;;;1.70;;
70558;SDS011;58108;48.094;11.838;2022-09-03T01:03:31;3.77;;;1.50;;
70558;SDS011;58108;48.094;11.838;2022-09-03T01:11:42;3.25;;;1.35;;
70558;SDS011;58108;48.094;11.838;2022-09-03T01:14:21;3.78;;;1.50;;
70558;SDS011;58108;48.094;11.838;2022-09-03T01:17:24;4.35;;;1.60;;
70558;SDS011;58108;48.094;11.838;2022-09-03T01:20:28;3.88;;;1.60;;
70558;SDS011;58108;48.094;11.838;2022-09-03T01:23:13;4.13;;;1.70;;
70558;SDS011;58108;48.094;11.838;2022-09-03T01:28:49;3.95;;;1.63;;
70558;SDS011;58108;48.094;11.838;2022-09-03T01:31:28;5.03;;;1.60;;
70558;SDS011;58108;48.094;11.838;2022-09-03T01:45:53;5.20;;;1.67;;
70558;SDS011;58108;48.094;11.838;2022-09-03T01:48:30;7.35;;;1.75;;
70558;SDS011;58108;48.094;11.838;2022-09-03T01:59:26;3.40;;;1.60;;
70558;SDS011;58108;48.094;11.838;2022-09-03T02:02:16;5.13;;;1.98;;
70558;SDS011;58108;48.094;11.838;2022-09-03T02:04:58;4.27;;;1.63;;
70558;SDS011;58108;48.094;11.838;2022-09-03T02:07:25;2.80;;;1.40;;
70558;SDS011;58108;48.094;11.838;2022-09-03T02:09:57;3.40;;;1.63;;
70558;SDS011;58108;48.094;11.838;2022-09-03T02:12:23;3.97;;;1.88;;
70558;SDS011;58108;48.094;11.838;2022-09-03T02:14:48;4.40;;;1.70;;
70558;SDS011;58108;48.094;11.838;2022-09-03T02:17:13;3.90;;;2.20;;
70558;SDS011;58108;48.094;11.838;2022-09-03T02:19:39;3.67;;;1.90;;
70558;SDS011;58108;48.094;11.838;2022-09-03T02:22:04;4.20;;;2.20;;
70558;SDS011;58108;48.094;11.838;2022-09-03T02:24:31;4.70;;;2.13;;
70558;SDS011;58108;48.094;11.838;2022-09-03T02:26:56;4.10;;;2.30;;
70558;SDS011;58108;48.094;11.838;2022-09-03T02:29:22;4.40;;;2.43;;
70558;SDS011;58108;48.094;11.838;2022-09-03T02:31:48;3.40;;;2.00;;
70558;SDS011;58108;48.094;11.838;2022-09-03T02:34:13;5.50;;;2.27;;
70558;SDS011;58108;48.094;11.838;2022-09-03T02:36:40;4.27;;;1.80;;
70558;SDS011;58108;48.094;11.838;2022-09-03T02:39:07;3.90;;;2.08;;
70558;SDS011;58108;48.094;11.838;2022-09-03T02:41:33;3.25;;;1.98;;
70558;SDS011;58108;48.094;11.838;2022-09-03T02:44:03;4.27;;;2.10;;
70558;SDS011;58108;48.094;11.838;2022-09-03T02:46:38;5.32;;;2.08;;
70558;SDS011;58108;48.094;11.838;2022-09-03T02:49:05;3.93;;;2.40;;
70558;SDS011;58108;48.094;11.838;2022-09-03T02:51:38;4.57;;;2.13;;
70558;SDS011;58108;48.094;11.838;2022-09-03T02:54:06;5.90;;;2.42;;
70558;SDS011;58108;48.094;11.838;2022-09-03T02:56:32;5.00;;;2.10;;
70558;SDS011;58108;48.094;11.838;2022-09-03T02:58:57;5.95;;;2.63;;
70558;SDS011;58108;48.094;11.838;2022-09-03T03:01:22;6.47;;;2.30;;
70558;SDS011;58108;48.094;11.838;2022-09-03T03:03:48;4.03;;;1.97;;
70558;SDS011;58108;48.094;11.838;2022-09-03T03:06:14;6.03;;;2.00;;
70558;SDS011;58108;48.094;11.838;2022-09-03T03:08:39;3.10;;;1.57;;
70558;SDS011;58108;48.094;11.838;2022-09-03T03:11:05;4.00;;;1.60;;
70558;SDS011;58108;48.094;11.838;2022-09-03T03:13:31;3.38;;;1.50;;
70558;SDS011;58108;48.094;11.838;2022-09-03T03:16:01;3.00;;;1.50;;
70558;SDS011;58108;48.094;11.838;2022-09-03T03:18:30;3.75;;;1.50;;
70558;SDS011;58108;48.094;11.838;2022-09-03T03:20:56;3.00;;;1.60;;
70558;SDS011;58108;48.094;11.838;2022-09-03T03:23:22;3.97;;;1.80;;
70558;SDS011;58108;48.094;11.838;2022-09-03T03:25:47;5.47;;;2.00;;
70558;SDS011;58108;48.094;11.838;2022-09-03T03:28:13;3.70;;;1.90;;
70558;SDS011;58108;48.094;11.838;2022-09-03T03:30:39;3.90;;;1.80;;
70558;SDS011;58108;48.094;11.838;2022-09-03T03:33:06;4.55;;;1.88;;
70558;SDS011;58108;48.094;11.838;2022-09-03T03:35:33;4.10;;;1.88;;
70558;SDS011;58108;48.094;11.838;2022-09-03T03:37:59;4.13;;;1.90;;
70558;SDS011;58108;48.094;11.838;2022-09-03T03:40:24;3.77;;;2.10;;
70558;SDS011;58108;48.094;11.838;2022-09-03T03:42:50;4.63;;;1.97;;
70558;SDS011;58108;48.094;11.838;2022-09-03T03:45:16;4.10;;;2.10;;
70558;SDS011;58108;48.094;11.838;2022-09-03T03:47:41;4.38;;;2.10;;
70558;SDS011;58108;48.094;11.838;2022-09-03T03:50:07;4.23;;;1.80;;
70558;SDS011;58108;48.094;11.838;2022-09-03T03:52:32;4.83;;;1.83;;
70558;SDS011;58108;48.094;11.838;2022-09-03T03:54:58;4.75;;;1.98;;
70558;SDS011;58108;48.094;11.838;2022-09-03T03:57:23;4.27;;;1.77;;
70558;SDS011;58108;48.094;11.838;2022-09-03T03:59:49;5.03;;;2.00;;
70558;SDS011;58108;48.094;11.838;2022-09-03T04:02:14;4.93;;;2.40;;
70558;SDS011;58108;48.094;11.838;2022-09-03T04:04:41;5.78;;;2.40;;
70558;SDS011;58108;48.094;11.838;2022-09-03T04:07:06;4.22;;;2.30;;
70558;SDS011;58108;48.094;11.838;2022-09-03T04:09:32;4.27;;;2.20;;
70558;SDS011;58108;48.094;11.838;2022-09-03T04:11:58;4.82;;;2.60;;
70558;SDS011;58108;48.094;11.838;2022-09-03T04:14:24;4.13;;;2.23;;
70558;SDS011;58108;48.094;11.838;2022-09-03T04:16:51;3.63;;;2.15;;
70558;SDS011;58108;48.094;11.838;2022-09-03T04:19:16;3.57;;;1.93;;
70558;SDS011;58108;48.094;11.838;2022-09-03T04:21:41;4.80;;;2.30;;
70558;SDS011;58108;48.094;11.838;2022-09-03T04:24:07;3.53;;;2.00;;
70558;SDS011;58108;48.094;11.838;2022-09-03T04:26:33;4.27;;;1.80;;
70558;SDS011;58108;48.094;11.838;2022-09-03T04:28:59;4.78;;;1.85;;
70558;SDS011;58108;48.094;11.838;2022-09-03T04:31:26;3.70;;;2.10;;
70558;SDS011;58108;48.094;11.838;2022-09-03T04:33:52;4.80;;;2.33;;
70558;SDS011;58108;48.094;11.838;2022-09-03T04:36:19;4.13;;;2.50;;
70558;SDS011;58108;48.094;11.838;2022-09-03T04:38:47;7.93;;;3.28;;
70558;SDS011;58108;48.094;11.838;2022-09-03T04:41:14;5.70;;;2.58;;
70558;SDS011;58108;48.094;11.838;2022-09-03T04:43:42;3.33;;;2.10;;
70558;SDS011;58108;48.094;11.838;2022-09-03T04:46:07;4.47;;;2.37;;
70558;SDS011;58108;48.094;11.838;2022-09-03T04:48:34;7.38;;;2.72;;
70558;SDS011;58108;48.094;11.838;2022-09-03T04:51:10;4.43;;;2.75;;
70558;SDS011;58108;48.094;11.838;2022-09-03T04:53:40;7.15;;;2.58;;
70558;SDS011;58108;48.094;11.838;2022-09-03T04:56:13;4.72;;;2.80;;
70558;SDS011;58108;48.094;11.838;2022-09-03T04:58:40;4.90;;;2.60;;
70558;SDS011;58108;48.094;11.838;2022-09-03T05:01:27;5.25;;;2.53;;
70558;SDS011;58108;48.094;11.838;2022-09-03T05:03:55;4.55;;;2.70;;
70558;SDS011;58108;48.094;11.838;2022-09-03T05:06:22;4.55;;;2.53;;
70558;SDS011;58108;48.094;11.838;2022-09-03T05:08:49;4.25;;;2.78;;
70558;SDS011;58108;48.094;11.838;2022-09-03T05:11:17;3.65;;;2.20;;
70558;SDS011;58108;48.094;11.838;2022-09-03T05:13:42;5.60;;;2.45;;
70558;SDS011;58108;48.094;11.838;2022-09-03T05:16:12;3.72;;;2.17;;
70558;SDS011;58108;48.094;11.838;2022-09-03T05:18:38;4.03;;;2.20;;
70558;SDS011;58108;48.094;11.838;2022-09-03T05:21:05;4.13;;;2.30;;
70558;SDS011;58108;48.094;11.838;2022-09-03T05:23:34;4.13;;;2.38;;
70558;SDS011;58108;48.094;11.838;2022-09-03T05:26:02;4.43;;;2.38;;
70558;SDS011;58108;48.094;11.838;2022-09-03T05:28:32;3.73;;;2.27;;
70558;SDS011;58108;48.094;11.838;2022-09-03T05:31:00;4.38;;;2.00;;
70558;SDS011;58108;48.094;11.838;2022-09-03T05:33:27;3.75;;;2.03;;
70558;SDS011;58108;48.094;11.838;2022-09-03T05:35:53;3.25;;;2.20;;
70558;SDS011;58108;48.094;11.838;2022-09-03T05:38:24;3.30;;;1.90;;
70558;SDS011;58108;48.094;11.838;2022-09-03T05:40:49;4.20;;;2.20;;
70558;SDS011;58108;48.094;11.838;2022-09-03T05:43:15;4.30;;;1.83;;
70558;SDS011;58108;48.094;11.838;2022-09-03T05:45:41;5.90;;;2.50;;
70558;SDS011;58108;48.094;11.838;2022-09-03T05:48:06;4.10;;;2.50;;
70558;SDS011;58108;48.094;11.838;2022-09-03T05:50:31;6.73;;;3.50;;
70558;SDS011;58108;48.094;11.838;2022-09-03T05:52:57;4.93;;;3.40;;
70558;SDS011;58108;48.094;11.838;2022-09-03T05:55:22;4.50;;;3.00;;
70558;SDS011;58108;48.094;11.838;2022-09-03T05:57:51;4.70;;;2.87;;
70558;SDS011;58108;48.094;11.838;2022-09-03T06:00:16;4.20;;;3.00;;
70558;SDS011;58108;48.094;11.838;2022-09-03T06:02:48;4.30;;;2.40;;
70558;SDS011;58108;48.094;11.838;2022-09-03T06:05:15;5.22;;;2.28;;
70558;SDS011;58108;48.094;11.838;2022-09-03T06:07:40;5.07;;;2.73;;
70558;SDS011;58108;48.094;11.838;2022-09-03T06:10:06;6.50;;;3.07;;
70558;SDS011;58108;48.094;11.838;2022-09-03T06:12:32;4.70;;;2.50;;
70558;SDS011;58108;48.094;11.838;2022-09-03T06:14:57;5.77;;;2.27;;
70558;SDS011;58108;48.094;11.838;2022-09-03T06:17:22;5.07;;;2.40;;
70558;SDS011;58108;48.094;11.838;2022-09-03T06:19:48;5.03;;;2.80;;
70558;SDS011;58108;48.094;11.838;2022-09-03T06:22:13;4.03;;;2.50;;
70558;SDS011;58108;48.094;11.838;2022-09-03T06:24:38;4.27;;;2.80;;
70558;SDS011;58108;48.094;11.838;2022-09-03T06:27:04;4.33;;;2.70;;
70558;SDS011;58108;48.094;11.838;2022-09-03T06:29:29;5.03;;;3.00;;
70558;SDS011;58108;48.094;11.838;2022-09-03T06:31:55;4.87;;;2.83;;
70558;SDS011;58108;48.094;11.838;2022-09-03T06:34:21;4.97;;;3.03;;
70558;SDS011;58108;48.094;11.838;2022-09-03T06:36:49;5.15;;;3.05;;
70558;SDS011;58108;48.094;11.838;2022-09-03T06:39:15;5.57;;;2.90;;
70558;SDS011;58108;48.094;11.838;2022-09-03T06:41:40;6.50;;;3.13;;
70558;SDS011;58108;48.094;11.838;2022-09-03T06:44:06;5.13;;;2.80;;
70558;SDS011;58108;48.094;11.838;2022-09-03T06:46:35;4.68;;;3.00;;
70558;SDS011;58108;48.094;11.838;2022-09-03T06:49:08;4.40;;;2.87;;
70558;SDS011;58108;48.094;11.838;2022-09-03T06:51:35;5.47;;;2.92;;
70558;SDS011;58108;48.094;11.838;2022-09-03T06:54:06;5.18;;;2.80;;
70558;SDS011;58108;48.094;11.838;2022-09-03T06:56:33;5.25;;;2.70;;
70558;SDS011;58108;48.094;11.838;2022-09-03T06:59:03;4.10;;;2.63;;
70558;SDS011;58108;48.094;11.838;2022-09-03T07:01:30;4.10;;;2.57;;
70558;SDS011;58108;48.094;11.838;2022-09-03T07:03:57;4.13;;;2.80;;
70558;SDS011;58108;48.094;11.838;2022-09-03T07:06:25;3.78;;;2.53;;
70558;SDS011;58108;48.094;11.838;2022-09-03T07:08:52;3.63;;;2.47;;
70558;SDS011;58108;48.094;11.838;2022-09-03T07:11:19;4.07;;;2.45;;
70558;SDS011;58108;48.094;11.838;2022-09-03T07:13:49;3.80;;;2.57;;
70558;SDS011;58108;48.094;11.838;2022-09-03T07:16:20;3.95;;;2.70;;
70558;SDS011;58108;48.094;11.838;2022-09-03T07:18:50;5.10;;;2.70;;
70558;SDS011;58108;48.094;11.838;2022-09-03T07:21:17;3.83;;;2.50;;
70558;SDS011;58108;48.094;11.838;2022-09-03T07:23:44;4.20;;;1.95;;
70558;SDS011;58108;48.094;11.838;2022-09-03T07:26:14;5.40;;;3.13;;
70558;SDS011;58108;48.094;11.838;2022-09-03T07:28:43;3.63;;;2.30;;
70558;SDS011;58108;48.094;11.838;2022-09-03T07:31:17;3.63;;;2.35;;
70558;SDS011;58108;48.094;11.838;2022-09-03T07:33:45;4.07;;;2.20;;
70558;SDS011;58108;48.094;11.838;2022-09-03T07:36:15;3.63;;;2.25;;
70558;SDS011;58108;48.094;11.838;2022-09-03T07:38:42;3.50;;;2.10;;
70558;SDS011;58108;48.094;11.838;2022-09-03T07:41:09;4.15;;;2.22;;
70558;SDS011;58108;48.094;11.838;2022-09-03T07:43:37;4.13;;;2.42;;
70558;SDS011;58108;48.094;11.838;2022-09-03T07:46:08;5.40;;;2.63;;
70558;SDS011;58108;48.094;11.838;2022-09-03T07:48:40;4.10;;;2.65;;
70558;SDS011;58108;48.094;11.838;2022-09-03T07:51:06;5.93;;;2.57;;
70558;SDS011;58108;48.094;11.838;2022-09-03T07:53:32;4.78;;;2.50;;
70558;SDS011;58108;48.094;11.838;2022-09-03T07:56:05;4.45;;;2.42;;
70558;SDS011;58108;48.094;11.838;2022-09-03T07:58:33;3.45;;;2.28;;
70558;SDS011;58108;48.094;11.838;2022-09-03T08:01:03;4.85;;;1.88;;
70558;SDS011;58108;48.094;11.838;2022-09-03T08:03:36;3.37;;;1.77;;
70558;SDS011;58108;48.094;11.838;2022-09-03T08:06:05;4.25;;;2.50;;
70558;SDS011;58108;48.094;11.838;2022-09-03T08:08:31;3.90;;;2.25;;
70558;SDS011;58108;48.094;11.838;2022-09-03T08:13:31;4.15;;;2.20;;
70558;SDS011;58108;48.094;11.838;2022-09-03T08:15:57;4.30;;;2.17;;
70558;SDS011;58108;48.094;11.838;2022-09-03T08:18:24;4.32;;;2.40;;
70558;SDS011;58108;48.094;11.838;2022-09-03T08:20:51;4.43;;;2.50;;
70558;SDS011;58108;48.094;11.838;2022-09-03T08:23:16;3.40;;;2.40;;
70558;SDS011;58108;48.094;11.838;2022-09-03T08:25:41;3.90;;;2.40;;
70558;SDS011;58108;48.094;11.838;2022-09-03T08:28:08;3.78;;;2.10;;
70558;SDS011;58108;48.094;11.838;2022-09-03T08:30:34;3.10;;;2.07;;
70558;SDS011;58108;48.094;11.838;2022-09-03T08:33:00;6.27;;;3.77;;
70558;SDS011;58108;48.094;11.838;2022-09-03T08:35:28;4.20;;;2.40;;
70558;SDS011;58108;48.094;11.838;2022-09-03T08:37:56;3.50;;;2.08;;
70558;SDS011;58108;48.094;11.838;2022-09-03T08:40:21;3.93;;;2.23;;
70558;SDS011;58108;48.094;11.838;2022-09-03T08:43:02;3.53;;;2.10;;
70558;SDS011;58108;48.094;11.838;2022-09-03T08:45:41;3.17;;;1.88;;
70558;SDS011;58108;48.094;11.838;2022-09-03T08:48:15;3.30;;;1.70;;
70558;SDS011;58108;48.094;11.838;2022-09-03T08:50:46;3.10;;;1.83;;
70558;SDS011;58108;48.094;11.838;2022-09-03T08:55:54;3.10;;;1.80;;
70558;SDS011;58108;48.094;11.838;2022-09-03T08:58:25;3.20;;;1.67;;
70558;SDS011;58108;48.094;11.838;2022-09-03T09:00:56;2.90;;;1.50;;
70558;SDS011;58108;48.094;11.838;2022-09-03T09:15:12;3.50;;;2.30;;
70558;SDS011;58108;48.094;11.838;2022-09-03T09:20:28;3.20;;;1.70;;
70558;SDS011;58108;48.094;11.838;2022-09-03T09:23:39;2.70;;;1.50;;
70558;SDS011;58108;48.094;11.838;2022-09-03T09:26:12;3.25;;;1.83;;
70558;SDS011;58108;48.094;11.838;2022-09-03T09:28:40;3.17;;;1.67;;
70558;SDS011;58108;48.094;11.838;2022-09-03T09:31:09;2.75;;;1.67;;
70558;SDS011;58108;48.094;11.838;2022-09-03T09:33:39;3.08;;;1.90;;
70558;SDS011;58108;48.094;11.838;2022-09-03T09:36:05;2.83;;;1.70;;
70558;SDS011;58108;48.094;11.838;2022-09-03T09:38:34;3.45;;;1.58;;
70558;SDS011;58108;48.094;11.838;2022-09-03T09:41:15;7.18;;;1.40;;
70558;SDS011;58108;48.094;11.838;2022-09-03T09:43:43;2.58;;;1.30;;
70558;SDS011;58108;48.094;11.838;2022-09-03T09:46:22;2.63;;;1.50;;
70558;SDS011;58108;48.094;11.838;2022-09-03T09:48:51;3.27;;;1.50;;
70558;SDS011;58108;48.094;11.838;2022-09-03T09:51:21;2.22;;;1.13;;
70558;SDS011;58108;48.094;11.838;2022-09-03T09:54:09;2.88;;;1.58;;
70558;SDS011;58108;48.094;11.838;2022-09-03T09:56:38;3.35;;;1.60;;
70558;SDS011;58108;48.094;11.838;2022-09-03T09:59:08;3.30;;;1.50;;
70558;SDS011;58108;48.094;11.838;2022-09-03T10:01:35;3.20;;;1.43;;
70558;SDS011;58108;48.094;11.838;2022-09-03T10:04:10;2.92;;;1.65;;
70558;SDS011;58108;48.094;11.838;2022-09-03T10:06:37;2.60;;;1.60;;
70558;SDS011;58108;48.094;11.838;2022-09-03T10:09:21;4.40;;;1.40;;
70558;SDS011;58108;48.094;11.838;2022-09-03T10:11:49;2.65;;;1.50;;
70558;SDS011;58108;48.094;11.838;2022-09-03T10:14:29;2.80;;;1.50;;
70558;SDS011;58108;48.094;11.838;2022-09-03T10:19:54;3.58;;;1.50;;
70558;SDS011;58108;48.094;11.838;2022-09-03T10:22:42;3.13;;;1.50;;
70558;SDS011;58108;48.094;11.838;2022-09-03T10:25:14;3.15;;;1.60;;
70558;SDS011;58108;48.094;11.838;2022-09-03T10:27:41;3.40;;;1.30;;
70558;SDS011;58108;48.094;11.838;2022-09-03T10:30:09;2.20;;;1.20;;
70558;SDS011;58108;48.094;11.838;2022-09-03T10:32:41;2.58;;;1.20;;
70558;SDS011;58108;48.094;11.838;2022-09-03T10:53:44;2.47;;;1.35;;
70558;SDS011;58108;48.094;11.838;2022-09-03T11:07:41;2.33;;;1.20;;
70558;SDS011;58108;48.094;11.838;2022-09-03T11:12:49;2.23;;;1.13;;
70558;SDS011;58108;48.094;11.838;2022-09-03T11:15:31;2.40;;;1.20;;
70558;SDS011;58108;48.094;11.838;2022-09-03T11:18:10;2.65;;;1.35;;
70558;SDS011;58108;48.094;11.838;2022-09-03T11:20:43;2.00;;;1.00;;
70558;SDS011;58108;48.094;11.838;2022-09-03T11:23:13;2.72;;;1.10;;
70558;SDS011;58108;48.094;11.838;2022-09-03T11:25:42;3.37;;;0.93;;
70558;SDS011;58108;48.094;11.838;2022-09-03T11:31:12;1.90;;;1.10;;
70558;SDS011;58108;48.094;11.838;2022-09-03T11:34:06;2.20;;;1.00;;
70558;SDS011;58108;48.094;11.838;2022-09-03T11:36:33;2.40;;;1.00;;
70558;SDS011;58108;48.094;11.838;2022-09-03T11:39:11;2.10;;;1.20;;
70558;SDS011;58108;48.094;11.838;2022-09-03T11:41:42;2.03;;;1.10;;
70558;SDS011;58108;48.094;11.838;2022-09-03T11:44:21;2.10;;;1.02;;
70558;SDS011;58108;48.094;11.838;2022-09-03T11:46:54;2.10;;;1.10;;
70558;SDS011;58108;48.094;11.838;2022-09-03T11:49:26;1.90;;;0.90;;
70558;SDS011;58108;48.094;11.838;2022-09-03T11:52:00;1.90;;;1.00;;
70558;SDS011;58108;48.094;11.838;2022-09-03T11:54:30;2.28;;;1.17;;
70558;SDS011;58108;48.094;11.838;2022-09-03T11:57:08;1.98;;;0.90;;
70558;SDS011;58108;48.094;11.838;2022-09-03T11:59:39;2.10;;;1.00;;
70558;SDS011;58108;48.094;11.838;2022-09-03T12:04:56;2.40;;;1.00;;
70558;SDS011;58108;48.094;11.838;2022-09-03T12:07:36;2.13;;;1.20;;
70558;SDS011;58108;48.094;11.838;2022-09-03T12:15:50;2.77;;;1.07;;
70558;SDS011;58108;48.094;11.838;2022-09-03T12:18:28;2.20;;;1.00;;
70558;SDS011;58108;48.094;11.838;2022-09-03T12:26:02;4.00;;;2.50;;
70558;SDS011;58108;48.094;11.838;2022-09-03T12:28:30;2.30;;;1.40;;
70558;SDS011;58108;48.094;11.838;2022-09-03T12:31:13;2.43;;;1.30;;
70558;SDS011;58108;48.094;11.838;2022-09-03T12:33:53;2.35;;;1.30;;
70558;SDS011;58108;48.094;11.838;2022-09-03T12:36:34;2.00;;;1.23;;
70558;SDS011;58108;48.094;11.838;2022-09-03T12:41:59;2.38;;;1.83;;
70558;SDS011;58108;48.094;11.838;2022-09-03T12:47:13;1.90;;;1.50;;
70558;SDS011;58108;48.094;11.838;2022-09-03T12:49:45;2.20;;;1.33;;
70558;SDS011;58108;48.094;11.838;2022-09-03T12:54:54;2.17;;;1.83;;
70558;SDS011;58108;48.094;11.838;2022-09-03T12:57:30;2.30;;;1.60;;
70558;SDS011;58108;48.094;11.838;2022-09-03T13:00:03;1.80;;;1.42;;
70558;SDS011;58108;48.094;11.838;2022-09-03T13:05:56;1.90;;;1.40;;
70558;SDS011;58108;48.094;11.838;2022-09-03T13:11:17;2.10;;;1.20;;
70558;SDS011;58108;48.094;11.838;2022-09-03T13:14:04;2.05;;;1.50;;
70558;SDS011;58108;48.094;11.838;2022-09-03T13:22:16;1.90;;;1.60;;
70558;SDS011;58108;48.094;11.838;2022-09-03T13:25:29;2.10;;;1.33;;
70558;SDS011;58108;48.094;11.838;2022-09-03T13:33:50;2.20;;;1.52;;
70558;SDS011;58108;48.094;11.838;2022-09-03T13:36:23;2.05;;;1.65;;
70558;SDS011;58108;48.094;11.838;2022-09-03T13:39:06;2.13;;;1.67;;
70558;SDS011;58108;48.094;11.838;2022-09-03T13:41:51;2.20;;;1.77;;
70558;SDS011;58108;48.094;11.838;2022-09-03T13:47:34;2.05;;;1.80;;
70558;SDS011;58108;48.094;11.838;2022-09-03T13:50:27;1.95;;;1.63;;
70558;SDS011;58108;48.094;11.838;2022-09-03T13:55:27;2.33;;;1.63;;
70558;SDS011;58108;48.094;11.838;2022-09-03T13:58:07;2.90;;;1.50;;
70558;SDS011;58108;48.094;11.838;2022-09-03T14:00:48;2.72;;;1.30;;
70558;SDS011;58108;48.094;11.838;2022-09-03T14:06:11;2.10;;;1.43;;
70558;SDS011;58108;48.094;11.838;2022-09-03T14:19:57;2.17;;;1.20;;
70558;SDS011;58108;48.094;11.838;2022-09-03T14:25:14;2.90;;;1.30;;
70558;SDS011;58108;48.094;11.838;2022-09-03T14:27:41;2.53;;;1.38;;
70558;SDS011;58108;48.094;11.838;2022-09-03T14:36:18;2.22;;;1.20;;
70558;SDS011;58108;48.094;11.838;2022-09-03T14:42:06;2.33;;;1.20;;
70558;SDS011;58108;48.094;11.838;2022-09-03T14:55:54;2.03;;;1.00;;
70558;SDS011;58108;48.094;11.838;2022-09-03T15:01:13;5.47;;;0.65;;
70558;SDS011;58108;48.094;11.838;2022-09-03T15:15:06;2.80;;;0.50;;
70558;SDS011;58108;48.094;11.838;2022-09-03T15:17:53;2.60;;;0.40;;
70558;SDS011;58108;48.094;11.838;2022-09-03T15:36:48;2.90;;;0.70;;
70558;SDS011;58108;48.094;11.838;2022-09-03T15:39:19;2.58;;;0.80;;
70558;SDS011;58108;48.094;11.838;2022-09-03T15:41:58;2.78;;;0.88;;
70558;SDS011;58108;48.094;11.838;2022-09-03T15:44:26;3.45;;;0.98;;
70558;SDS011;58108;48.094;11.838;2022-09-03T15:49:31;2.78;;;0.70;;
70558;SDS011;58108;48.094;11.838;2022-09-03T15:54:42;2.85;;;0.57;;
70558;SDS011;58108;48.094;11.838;2022-09-03T15:57:19;4.13;;;0.73;;
70558;SDS011;58108;48.094;11.838;2022-09-03T16:00:10;3.87;;;0.63;;
70558;SDS011;58108;48.094;11.838;2022-09-03T16:02:49;3.15;;;0.73;;
70558;SDS011;58108;48.094;11.838;2022-09-03T16:05:27;2.53;;;0.63;;
70558;SDS011;58108;48.094;11.838;2022-09-03T16:08:21;3.70;;;0.60;;
70558;SDS011;58108;48.094;11.838;2022-09-03T16:11:01;7.68;;;1.65;;
70558;SDS011;58108;48.094;11.838;2022-09-03T16:13:46;5.23;;;1.13;;
70558;SDS011;58108;48.094;11.838;2022-09-03T16:16:25;2.40;;;0.60;;
70558;SDS011;58108;48.094;11.838;2022-09-03T16:18:58;1.58;;;0.20;;
70558;SDS011;58108;48.094;11.838;2022-09-03T16:21:31;3.60;;;0.40;;
70558;SDS011;58108;48.094;11.838;2022-09-03T16:24:11;2.28;;;0.30;;
70558;SDS011;58108;48.094;11.838;2022-09-03T16:26:47;1.90;;;0.50;;
70558;SDS011;58108;48.094;11.838;2022-09-03T16:29:17;2.53;;;0.30;;
70558;SDS011;58108;48.094;11.838;2022-09-03T16:31:54;2.42;;;0.50;;
70558;SDS011;58108;48.094;11.838;2022-09-03T16:34:39;3.58;;;0.47;;
70558;SDS011;58108;48.094;11.838;2022-09-03T16:48:31;2.80;;;0.38;;
70558;SDS011;58108;48.094;11.838;2022-09-03T16:51:04;2.88;;;0.45;;
70558;SDS011;58108;48.094;11.838;2022-09-03T17:10:51;2.35;;;0.50;;
70558;SDS011;58108;48.094;11.838;2022-09-03T17:21:16;2.57;;;0.40;;
70558;SDS011;58108;48.094;11.838;2022-09-03T17:49:08;2.00;;;0.50;;
70558;SDS011;58108;48.094;11.838;2022-09-03T17:51:46;1.90;;;0.60;;
70558;SDS011;58108;48.094;11.838;2022-09-03T18:02:11;2.15;;;0.40;;
70558;SDS011;58108;48.094;11.838;2022-09-03T18:04:47;3.07;;;0.57;;
70558;SDS011;58108;48.094;11.838;2022-09-03T18:07:23;2.95;;;0.70;;
70558;SDS011;58108;48.094;11.838;2022-09-03T18:10:09;2.13;;;0.60;;
70558;SDS011;58108;48.094;11.838;2022-09-03T18:15:54;3.83;;;0.60;;
70558;SDS011;58108;48.094;11.838;2022-09-03T18:18:30;3.60;;;0.63;;
70558;SDS011;58108;48.094;11.838;2022-09-03T18:21:02;7.55;;;0.73;;
70558;SDS011;58108;48.094;11.838;2022-09-03T18:23:57;4.03;;;0.68;;
70558;SDS011;58108;48.094;11.838;2022-09-03T18:27:08;3.92;;;0.82;;
70558;SDS011;58108;48.094;11.838;2022-09-03T18:30:00;2.55;;;0.60;;
70558;SDS011;58108;48.094;11.838;2022-09-03T18:32:47;2.10;;;0.50;;
70558;SDS011;58108;48.094;11.838;2022-09-03T18:35:31;2.08;;;0.52;;
70558;SDS011;58108;48.094;11.838;2022-09-03T18:38:26;2.40;;;0.77;;
70558;SDS011;58108;48.094;11.838;2022-09-03T18:50:23;3.03;;;0.80;;
70558;SDS011;58108;48.094;11.838;2022-09-03T18:53:22;2.80;;;0.90;;
70558;SDS011;58108;48.094;11.838;2022-09-03T19:02:46;2.10;;;0.57;;
70558;SDS011;58108;48.094;11.838;2022-09-03T19:12:00;3.35;;;0.60;;
70558;SDS011;58108;48.094;11.838;2022-09-03T19:23:43;2.20;;;0.60;;
70558;SDS011;58108;48.094;11.838;2022-09-03T19:26:30;2.20;;;0.40;;
70558;SDS011;58108;48.094;11.838;2022-09-03T19:32:53;2.30;;;0.40;;
70558;SDS011;58108;48.094;11.838;2022-09-03T19:45:25;2.25;;;0.50;;
70558;SDS011;58108;48.094;11.838;2022-09-03T19:54:52;4.55;;;0.52;;
70558;SDS011;58108;48.094;11.838;2022-09-03T19:57:39;2.58;;;0.55;;
70558;SDS011;58108;48.094;11.838;2022-09-03T20:00:24;4.05;;;0.50;;
70558;SDS011;58108;48.094;11.838;2022-09-03T20:03:10;2.30;;;0.40;;
70558;SDS011;58108;48.094;11.838;2022-09-03T20:05:57;2.60;;;0.60;;
70558;SDS011;58108;48.094;11.838;2022-09-03T20:08:44;2.13;;;0.50;;
70558;SDS011;58108;48.094;11.838;2022-09-03T20:11:30;2.65;;;0.45;;
70558;SDS011;58108;48.094;11.838;2022-09-03T20:13:55;3.40;;;0.77;;
70558;SDS011;58108;48.094;11.838;2022-09-03T20:33:17;5.38;;;0.65;;
70558;SDS011;58108;48.094;11.838;2022-09-03T20:44:40;3.95;;;0.70;;
70558;SDS011;58108;48.094;11.838;2022-09-03T20:47:23;3.50;;;0.60;;
70558;SDS011;58108;48.094;11.838;2022-09-03T20:50:35;1.83;;;0.50;;
70558;SDS011;58108;48.094;11.838;2022-09-03T20:56:08;2.45;;;0.70;;
70558;SDS011;58108;48.094;11.838;2022-09-03T20:58:47;2.45;;;0.50;;
70558;SDS011;58108;48.094;11.838;2022-09-03T21:01:27;3.67;;;0.73;;
70558;SDS011;58108;48.094;11.838;2022-09-03T21:14:46;4.15;;;0.50;;
70558;SDS011;58108;48.094;11.838;2022-09-03T21:25:30;3.43;;;0.60;;
70558;SDS011;58108;48.094;11.838;2022-09-03T21:28:11;2.88;;;0.60;;
70558;SDS011;58108;48.094;11.838;2022-09-03T21:30:47;3.47;;;0.68;;
70558;SDS011;58108;48.094;11.838;2022-09-03T21:33:19;3.03;;;0.50;;
70558;SDS011;58108;48.094;11.838;2022-09-03T21:35:57;3.60;;;0.50;;
70558;SDS011;58108;48.094;11.838;2022-09-03T21:38:30;3.57;;;1.00;;